createdAt,value
2023-04-18T00:01:15.085Z,100034.50
2023-04-18T00:06:19.459Z,100028.44
2023-04-18T00:11:22.974Z,100025.66
2023-04-18T00:16:28.542Z,100010.88
2023-04-18T00:21:32.268Z,100013.47
2023-04-18T00:26:35.802Z,100016.94
2023-04-18T00:31:40.711Z,100022.22
2023-04-18T00:36:43.883Z,100013.53
2023-04-18T00:41:47.334Z,100016.88
2023-04-18T00:46:52.258Z,100011.72
2023-04-18T00:51:56.017Z,100019.53
2023-04-18T00:56:59.484Z,100022.09
2023-04-18T01:02:05.500Z,100014.34
2023-04-18T01:07:09.542Z,100001.28
2023-04-18T01:12:13.054Z,100017.81
2023-04-18T01:17:18.109Z,100010.91
2023-04-18T01:22:21.799Z,100013.47
2023-04-18T01:27:26.829Z,100019.50
2023-04-18T01:32:30.434Z,100007.31
2023-04-18T01:37:34.104Z,100003.88
2023-04-18T01:42:39.222Z,99993.53
2023-04-18T01:47:42.644Z,99989.22
2023-04-18T01:52:46.131Z,99996.19
2023-04-18T01:57:51.962Z,100004.88
2023-04-18T02:02:55.583Z,100005.66
2023-04-18T02:07:59.392Z,99993.53
2023-04-18T02:13:04.356Z,99990.97
2023-04-18T02:18:09.716Z,99986.56
2023-04-18T02:23:13.632Z,99985.47
2023-04-18T02:28:18.486Z,99990.75
2023-04-18T02:33:21.658Z,99994.25
2023-04-18T02:38:25.184Z,99993.25
2023-04-18T02:43:30.238Z,99995.97
2023-04-18T02:48:33.449Z,99996.03
2023-04-18T02:53:37.110Z,99990.84
2023-04-18T02:58:42.016Z,99974.50
2023-04-18T03:03:45.208Z,99978.94
2023-04-18T03:08:48.779Z,99975.44
2023-04-18T03:13:55.225Z,99969.50
2023-04-18T03:18:58.684Z,99963.44
2023-04-18T03:24:02.412Z,99946.94
2023-04-18T03:29:07.616Z,99973.13
2023-04-18T03:34:11.245Z,99979.16
2023-04-18T03:39:15.130Z,99980.03
2023-04-18T03:44:20.320Z,99974.00
2023-04-18T03:49:24.037Z,99989.50
2023-04-18T03:54:27.644Z,99992.00
2023-04-18T03:59:32.580Z,99987.63
2023-04-18T04:04:35.766Z,99992.69
2023-04-18T04:09:39.217Z,99985.84
2023-04-18T04:14:44.281Z,99990.34
2023-04-18T04:19:47.766Z,99998.22
2023-04-18T04:24:51.941Z,99961.78
2023-04-18T04:29:57.341Z,99994.91
2023-04-18T04:35:00.983Z,100001.84
2023-04-18T04:40:06.478Z,100006.28
2023-04-18T04:45:12.647Z,100002.03
2023-04-18T04:50:16.745Z,99972.50
2023-04-18T04:55:20.437Z,100008.22
2023-04-18T05:00:25.650Z,100004.59
2023-04-18T05:05:29.396Z,100003.91
2023-04-18T05:10:33.263Z,100005.91
2023-04-18T05:15:38.236Z,100004.63
2023-04-18T05:20:41.810Z,100004.56
2023-04-18T05:25:45.355Z,100001.41
2023-04-18T05:30:50.256Z,100005.34
2023-04-18T05:35:53.874Z,100000.69
2023-04-18T05:41:00.422Z,100004.81
2023-04-18T05:46:05.667Z,99994.34
2023-04-18T05:51:11.452Z,99998.28
2023-04-18T05:56:15.654Z,100004.13
2023-04-18T06:01:21.702Z,100010.31
2023-04-18T06:06:25.970Z,100011.75
2023-04-18T06:11:33.599Z,100010.56
2023-04-18T06:16:39.271Z,99995.16
2023-04-18T06:21:43.224Z,100013.66
2023-04-18T06:26:47.491Z,100018.50
2023-04-18T06:31:52.724Z,100010.72
2023-04-18T06:36:56.715Z,100005.31
2023-04-18T06:42:00.205Z,99999.22
2023-04-18T06:47:05.756Z,99998.16
2023-04-18T06:52:12.219Z,100009.84
2023-04-18T06:57:15.862Z,99998.44
2023-04-18T07:02:20.965Z,100007.53
2023-04-18T07:07:26.558Z,100001.66
2023-04-18T07:12:30.097Z,99997.88
2023-04-18T07:17:35.633Z,100009.97
2023-04-18T07:22:41.439Z,100001.22
2023-04-18T07:27:45.736Z,99986.91
2023-04-18T07:32:50.805Z,100006.63
2023-04-18T07:37:54.688Z,100012.00
2023-04-18T07:42:58.300Z,100008.81
2023-04-18T07:48:03.556Z,100009.41
2023-04-18T07:53:08.650Z,100014.09
2023-04-18T07:58:12.348Z,100003.69
2023-04-18T08:03:17.817Z,100011.72
2023-04-18T08:08:21.664Z,100007.06
2023-04-18T08:13:25.581Z,100011.78
2023-04-18T08:18:30.554Z,100024.53
2023-04-18T08:23:34.035Z,100026.47
2023-04-18T08:28:38.022Z,100029.34
2023-04-18T08:33:43.757Z,100031.81
2023-04-18T08:38:47.769Z,100041.06
2023-04-18T08:43:51.276Z,100041.81
2023-04-18T08:48:58.724Z,100038.63
2023-04-18T08:54:04.744Z,100036.81
2023-04-18T08:59:09.731Z,100038.38
2023-04-18T09:04:31.908Z,100041.97
2023-04-18T09:09:46.777Z,100035.13
2023-04-18T09:14:51.640Z,100030.41
2023-04-18T09:19:56.866Z,100027.53
2023-04-18T09:25:00.518Z,100021.78
2023-04-18T09:30:04.433Z,100026.94
2023-04-18T09:35:10.453Z,100028.69
2023-04-18T09:40:19.159Z,100031.50
2023-04-18T09:45:25.498Z,100021.66
2023-04-18T09:50:31.372Z,100016.75
2023-04-18T09:55:35.614Z,100018.09
2023-04-18T10:00:40.183Z,100015.75
2023-04-18T10:05:46.114Z,100010.13
2023-04-18T10:10:49.637Z,100002.97
2023-04-18T10:15:54.820Z,100013.38
2023-04-18T10:21:04.856Z,100016.19
2023-04-18T10:26:09.216Z,100015.50
2023-04-18T10:31:12.999Z,100017.50
2023-04-18T10:36:20.632Z,100016.47
2023-04-18T10:41:26.589Z,100018.06
2023-04-18T10:46:32.804Z,100012.28
2023-04-18T10:51:38.441Z,100011.94
2023-04-18T10:56:42.185Z,100014.03
2023-04-18T11:01:50.600Z,100004.94
2023-04-18T11:06:58.446Z,100002.06
2023-04-18T11:12:07.081Z,100004.94
2023-04-18T11:17:21.034Z,100000.81
2023-04-18T11:22:26.512Z,99994.19
2023-04-18T11:27:31.358Z,99982.56
2023-04-18T11:32:36.109Z,99988.84
2023-04-18T11:37:42.038Z,99984.06
2023-04-18T11:42:48.496Z,99976.75
2023-04-18T11:47:58.283Z,99961.88
2023-04-18T11:53:03.305Z,99967.31
2023-04-18T11:58:07.578Z,99948.09
2023-04-18T12:03:18.014Z,99951.16
2023-04-18T12:08:23.193Z,99952.28
2023-04-18T12:13:28.295Z,99956.13
2023-04-18T12:18:32.824Z,99953.47
2023-04-18T12:23:40.510Z,99951.44
2023-04-18T12:28:48.197Z,99941.47
2023-04-18T12:33:51.786Z,99953.53
2023-04-18T12:38:57.072Z,99951.03
2023-04-18T12:44:01.760Z,99951.59
2023-04-18T12:49:05.681Z,99941.94
2023-04-18T12:54:10.617Z,99945.34
2023-04-18T12:59:14.569Z,99935.88
2023-04-18T13:04:18.996Z,99944.06
2023-04-18T13:09:27.053Z,99940.16
2023-04-18T13:14:30.750Z,99931.34
2023-04-18T13:19:34.780Z,99941.72
2023-04-18T13:24:39.731Z,99928.38
2023-04-18T13:29:45.809Z,99936.09
2023-04-18T13:34:50.212Z,99939.25
2023-04-18T13:39:55.121Z,99934.84
2023-04-18T13:45:00.170Z,99939.84
2023-04-18T13:50:04.349Z,99942.84
2023-04-18T13:55:12.575Z,99941.78
2023-04-18T14:00:19.676Z,99940.03
2023-04-18T14:05:24.097Z,99938.56
2023-04-18T14:10:29.212Z,99934.50
2023-04-18T14:15:33.425Z,99931.16
2023-04-18T14:20:37.725Z,99940.47
2023-04-18T14:25:42.706Z,99936.38
2023-04-18T14:30:46.516Z,99936.88
2023-04-18T14:35:50.096Z,99936.94
2023-04-18T14:40:55.472Z,99939.69
2023-04-18T14:45:59.840Z,99938.22
2023-04-18T14:51:03.676Z,99942.09
2023-04-18T14:56:09.241Z,99945.88
2023-04-18T15:01:13.006Z,99943.38
2023-04-18T15:06:16.807Z,99951.22
2023-04-18T15:11:22.013Z,99941.78
2023-04-18T15:16:26.002Z,99947.94
2023-04-18T15:21:29.763Z,99957.44
2023-04-18T15:26:34.762Z,99952.28
2023-04-18T15:31:39.152Z,99949.75
2023-04-18T15:36:43.292Z,99956.75
2023-04-18T15:41:52.757Z,99961.97
2023-04-18T15:46:56.348Z,99959.34
2023-04-18T15:51:59.826Z,99955.03
2023-04-18T15:57:04.769Z,99958.47
2023-04-18T16:02:09.909Z,99966.34
2023-04-18T16:07:13.690Z,99962.97
2023-04-18T16:12:19.422Z,99966.53
2023-04-18T16:17:23.055Z,99970.13
2023-04-18T16:22:26.608Z,99969.31
2023-04-18T16:27:32.287Z,99975.50
2023-04-18T16:32:35.938Z,99973.84
2023-04-18T16:37:39.900Z,99980.88
2023-04-18T16:42:44.920Z,99979.22
2023-04-18T16:47:48.615Z,99984.50
2023-04-18T16:52:52.259Z,99991.44
2023-04-18T16:57:57.517Z,99975.91
2023-04-18T17:03:01.841Z,99988.94
2023-04-18T17:08:05.836Z,99998.53
2023-04-18T17:13:10.888Z,99994.19
2023-04-18T17:18:15.181Z,99999.44
2023-04-18T17:23:18.808Z,100003.78
2023-04-18T17:28:25.954Z,99998.56
2023-04-18T17:33:29.529Z,100004.69
2023-04-18T17:38:33.212Z,99996.00
2023-04-18T17:43:38.377Z,100002.09
2023-04-18T17:48:42.360Z,100005.59
2023-04-18T17:53:46.123Z,99997.75
2023-04-18T17:58:51.679Z,99998.66
2023-04-18T18:03:55.825Z,100005.59
2023-04-18T18:08:59.748Z,99996.94
2023-04-18T18:14:04.733Z,100002.13
2023-04-18T18:19:08.493Z,100006.47
2023-04-18T18:24:12.552Z,100011.66
2023-04-18T18:29:19.601Z,100003.00
2023-04-18T18:34:23.219Z,100009.97
2023-04-18T18:39:27.759Z,100003.88
2023-04-18T18:44:33.760Z,100007.34
2023-04-18T18:49:37.580Z,100001.25
2023-04-18T18:54:41.123Z,99998.63
2023-04-18T18:59:46.197Z,100003.88
2023-04-18T19:04:49.879Z,100001.28
2023-04-18T19:09:55.375Z,100003.03
2023-04-18T19:15:00.349Z,99997.81
2023-04-18T19:20:04.574Z,100002.09
2023-04-18T19:25:11.047Z,99982.97
2023-04-18T19:30:15.930Z,99992.50
2023-04-18T19:35:19.475Z,99978.59
2023-04-18T19:40:26.743Z,99997.69
2023-04-18T19:45:32.068Z,99996.78
2023-04-18T19:50:35.605Z,99995.84
2023-04-18T19:55:39.422Z,99988.84
2023-04-18T20:00:44.381Z,100001.88
2023-04-18T20:05:48.024Z,100004.47
2023-04-18T20:10:51.558Z,100010.53
2023-04-18T20:15:56.687Z,100006.19
2023-04-18T20:21:00.239Z,100004.44
2023-04-18T20:26:04.582Z,100010.53
2023-04-18T20:31:09.648Z,100012.25
2023-04-18T20:36:14.227Z,100015.72
2023-04-18T20:41:18.335Z,100003.38
2023-04-18T20:46:23.504Z,100020.78
2023-04-18T20:51:28.060Z,100019.91
2023-04-18T20:56:32.141Z,100019.03
2023-04-18T21:01:37.366Z,100025.06
2023-04-18T21:06:40.896Z,100023.34
2023-04-18T21:11:44.467Z,100026.81
2023-04-18T21:16:49.734Z,100032.00
2023-04-18T21:21:53.222Z,100034.59
2023-04-18T21:26:57.897Z,100038.13
2023-04-18T21:32:02.797Z,100042.44
2023-04-18T21:37:06.390Z,100034.63
2023-04-18T21:42:10.037Z,100033.72
2023-04-18T21:47:14.960Z,100033.72
2023-04-18T21:52:18.145Z,100041.50
2023-04-18T21:57:21.652Z,100048.34
2023-04-18T22:02:26.985Z,100047.50
2023-04-18T22:07:31.204Z,100049.19
2023-04-18T22:12:35.396Z,100050.03
2023-04-18T22:17:41.847Z,100043.94
2023-04-18T22:22:45.572Z,100043.84
2023-04-18T22:27:49.050Z,100046.44
2023-04-18T22:32:54.101Z,100050.75
2023-04-18T22:37:57.729Z,100053.28
2023-04-18T22:43:01.450Z,100037.63
2023-04-18T22:48:11.475Z,100040.34
2023-04-18T22:53:15.500Z,100042.97
2023-04-18T22:58:19.042Z,100045.69
2023-04-18T23:03:24.130Z,100033.50
2023-04-18T23:08:28.722Z,100035.09
2023-04-18T23:13:33.617Z,100040.41
2023-04-18T23:18:38.585Z,100040.47
2023-04-18T23:23:42.104Z,100036.00
2023-04-18T23:28:45.596Z,100036.03
2023-04-18T23:33:50.668Z,100036.88
2023-04-18T23:38:54.209Z,100036.00
2023-04-18T23:43:57.753Z,100027.28
2023-04-18T23:49:02.656Z,100034.25
2023-04-18T23:54:05.911Z,100035.84
2023-04-18T23:59:09.386Z,100026.28
